Terminal Aerodrome Forecast
Issued by NWS Cleveland, OH

Home | Current Version | Previous Version | Text Only | Print | Product List | Glossary Off
Versions: 1 2 3 4 5 6 7 8 9 10 11 12 13 14 15

524
FTUS41 KCLE 161740 AAA
TAFMFD
TAF AMD
KMFD 161740Z 1618/1718 25015G25KT P6SM OVC019
     FM162000 25015G25KT P6SM VCSH OVC020
     FM170300 26015KT P6SM OVC010
     FM170900 26015KT P6SM OVC007
     FM171200 27015KT P6SM OVC015
     FM171700 27015KT P6SM BKN020=

USA.gov is the U.S. government's official web portal to all federal, state and local government web resources and services.